sensor_id;sensor_type;location;lat;lon;timestamp;P1;durP1;ratioP1;P2;durP2;ratioP2
77362;SDS011;66428;47.322;9.432;2023-02-28T00:00:24;11.95;;;5.47;;
77362;SDS011;66428;47.322;9.432;2023-02-28T00:02:50;13.73;;;6.63;;
77362;SDS011;66428;47.322;9.432;2023-02-28T00:05:18;11.38;;;6.35;;
77362;SDS011;66428;47.322;9.432;2023-02-28T00:07:45;8.25;;;4.90;;
77362;SDS011;66428;47.322;9.432;2023-02-28T00:12:41;11.38;;;6.20;;
77362;SDS011;66428;47.322;9.432;2023-02-28T00:15:12;10.38;;;5.60;;
77362;SDS011;66428;47.322;9.432;2023-02-28T00:17:39;10.13;;;6.25;;
77362;SDS011;66428;47.322;9.432;2023-02-28T00:20:08;13.35;;;6.93;;
77362;SDS011;66428;47.322;9.432;2023-02-28T00:22:39;10.10;;;5.85;;
77362;SDS011;66428;47.322;9.432;2023-02-28T00:25:08;10.25;;;5.35;;
77362;SDS011;66428;47.322;9.432;2023-02-28T00:27:37;8.07;;;4.95;;
77362;SDS011;66428;47.322;9.432;2023-02-28T00:30:08;8.55;;;5.85;;
77362;SDS011;66428;47.322;9.432;2023-02-28T00:32:40;8.63;;;5.20;;
77362;SDS011;66428;47.322;9.432;2023-02-28T00:35:11;10.98;;;5.88;;
77362;SDS011;66428;47.322;9.432;2023-02-28T00:37:40;11.45;;;5.82;;
77362;SDS011;66428;47.322;9.432;2023-02-28T00:40:09;9.07;;;5.60;;
77362;SDS011;66428;47.322;9.432;2023-02-28T00:42:40;10.63;;;5.93;;
77362;SDS011;66428;47.322;9.432;2023-02-28T00:45:11;9.35;;;5.72;;
77362;SDS011;66428;47.322;9.432;2023-02-28T00:47:40;13.30;;;6.40;;
77362;SDS011;66428;47.322;9.432;2023-02-28T00:50:07;10.63;;;6.07;;
77362;SDS011;66428;47.322;9.432;2023-02-28T00:52:38;11.57;;;6.65;;
77362;SDS011;66428;47.322;9.432;2023-02-28T00:55:07;10.45;;;6.22;;
77362;SDS011;66428;47.322;9.432;2023-02-28T00:57:38;11.48;;;6.15;;
77362;SDS011;66428;47.322;9.432;2023-02-28T01:00:06;9.32;;;5.75;;
77362;SDS011;66428;47.322;9.432;2023-02-28T01:02:35;11.85;;;6.07;;
77362;SDS011;66428;47.322;9.432;2023-02-28T01:05:01;14.68;;;7.35;;
77362;SDS011;66428;47.322;9.432;2023-02-28T01:07:31;10.43;;;6.88;;
77362;SDS011;66428;47.322;9.432;2023-02-28T01:10:00;11.00;;;5.70;;
77362;SDS011;66428;47.322;9.432;2023-02-28T01:12:26;9.95;;;6.57;;
77362;SDS011;66428;47.322;9.432;2023-02-28T01:14:56;11.57;;;6.70;;
77362;SDS011;66428;47.322;9.432;2023-02-28T01:17:25;13.60;;;6.63;;
77362;SDS011;66428;47.322;9.432;2023-02-28T01:19:55;10.98;;;5.95;;
77362;SDS011;66428;47.322;9.432;2023-02-28T01:22:25;10.38;;;6.47;;
77362;SDS011;66428;47.322;9.432;2023-02-28T01:24:54;9.77;;;5.43;;
77362;SDS011;66428;47.322;9.432;2023-02-28T01:27:25;11.40;;;5.90;;
77362;SDS011;66428;47.322;9.432;2023-02-28T01:29:55;11.77;;;6.07;;
77362;SDS011;66428;47.322;9.432;2023-02-28T01:32:24;11.60;;;6.65;;
77362;SDS011;66428;47.322;9.432;2023-02-28T01:34:50;14.10;;;7.82;;
77362;SDS011;66428;47.322;9.432;2023-02-28T01:37:17;10.23;;;6.93;;
77362;SDS011;66428;47.322;9.432;2023-02-28T01:39:44;9.60;;;6.55;;
77362;SDS011;66428;47.322;9.432;2023-02-28T01:42:10;12.40;;;7.45;;
77362;SDS011;66428;47.322;9.432;2023-02-28T01:47:27;9.32;;;6.13;;
77362;SDS011;66428;47.322;9.432;2023-02-28T01:49:58;10.98;;;6.32;;
77362;SDS011;66428;47.322;9.432;2023-02-28T01:52:29;12.25;;;6.28;;
77362;SDS011;66428;47.322;9.432;2023-02-28T01:54:59;9.40;;;6.25;;
77362;SDS011;66428;47.322;9.432;2023-02-28T01:57:28;10.93;;;6.93;;
77362;SDS011;66428;47.322;9.432;2023-02-28T02:00:03;10.18;;;5.80;;
77362;SDS011;66428;47.322;9.432;2023-02-28T02:02:40;12.38;;;6.53;;
77362;SDS011;66428;47.322;9.432;2023-02-28T02:05:12;13.25;;;6.55;;
77362;SDS011;66428;47.322;9.432;2023-02-28T02:07:44;10.23;;;6.82;;
77362;SDS011;66428;47.322;9.432;2023-02-28T02:18:18;14.48;;;7.13;;
77362;SDS011;66428;47.322;9.432;2023-02-28T02:23:48;12.20;;;6.43;;
77362;SDS011;66428;47.322;9.432;2023-02-28T02:39:31;13.55;;;7.20;;
77362;SDS011;66428;47.322;9.432;2023-02-28T02:42:09;12.18;;;6.63;;
77362;SDS011;66428;47.322;9.432;2023-02-28T02:44:43;13.23;;;7.13;;
77362;SDS011;66428;47.322;9.432;2023-02-28T02:47:15;12.02;;;7.30;;
77362;SDS011;66428;47.322;9.432;2023-02-28T02:49:44;13.77;;;7.88;;
77362;SDS011;66428;47.322;9.432;2023-02-28T02:52:14;11.38;;;7.57;;
77362;SDS011;66428;47.322;9.432;2023-02-28T02:54:43;11.27;;;6.95;;
77362;SDS011;66428;47.322;9.432;2023-02-28T02:57:13;11.20;;;6.93;;
77362;SDS011;66428;47.322;9.432;2023-02-28T02:59:41;11.18;;;7.15;;
77362;SDS011;66428;47.322;9.432;2023-02-28T03:02:14;11.07;;;7.05;;
77362;SDS011;66428;47.322;9.432;2023-02-28T03:04:43;13.77;;;7.25;;
77362;SDS011;66428;47.322;9.432;2023-02-28T03:07:17;15.10;;;6.75;;
77362;SDS011;66428;47.322;9.432;2023-02-28T03:09:53;9.40;;;6.55;;
77362;SDS011;66428;47.322;9.432;2023-02-28T03:12:23;11.35;;;6.32;;
77362;SDS011;66428;47.322;9.432;2023-02-28T03:15:38;11.13;;;6.22;;
77362;SDS011;66428;47.322;9.432;2023-02-28T03:20:32;14.80;;;7.32;;
77362;SDS011;66428;47.322;9.432;2023-02-28T03:23:10;10.85;;;5.85;;
77362;SDS011;66428;47.322;9.432;2023-02-28T03:28:11;12.05;;;6.90;;
77362;SDS011;66428;47.322;9.432;2023-02-28T03:30:49;9.75;;;6.35;;
77362;SDS011;66428;47.322;9.432;2023-02-28T03:33:32;12.07;;;7.22;;
77362;SDS011;66428;47.322;9.432;2023-02-28T03:36:07;13.10;;;6.78;;
77362;SDS011;66428;47.322;9.432;2023-02-28T03:38:40;12.55;;;7.40;;
77362;SDS011;66428;47.322;9.432;2023-02-28T03:41:17;10.60;;;6.47;;
77362;SDS011;66428;47.322;9.432;2023-02-28T03:43:54;13.23;;;6.90;;
77362;SDS011;66428;47.322;9.432;2023-02-28T03:46:23;16.15;;;8.05;;
77362;SDS011;66428;47.322;9.432;2023-02-28T03:48:53;12.98;;;7.05;;
77362;SDS011;66428;47.322;9.432;2023-02-28T03:51:23;14.32;;;7.40;;
77362;SDS011;66428;47.322;9.432;2023-02-28T03:53:52;16.02;;;7.10;;
77362;SDS011;66428;47.322;9.432;2023-02-28T04:01:30;12.85;;;6.97;;
77362;SDS011;66428;47.322;9.432;2023-02-28T04:04:03;11.43;;;7.13;;
77362;SDS011;66428;47.322;9.432;2023-02-28T04:06:30;13.40;;;7.30;;
77362;SDS011;66428;47.322;9.432;2023-02-28T04:08:57;16.55;;;7.18;;
77362;SDS011;66428;47.322;9.432;2023-02-28T04:11:32;13.20;;;7.45;;
77362;SDS011;66428;47.322;9.432;2023-02-28T04:14:02;13.05;;;7.65;;
77362;SDS011;66428;47.322;9.432;2023-02-28T04:16:31;11.43;;;6.72;;
77362;SDS011;66428;47.322;9.432;2023-02-28T04:19:02;14.63;;;7.55;;
77362;SDS011;66428;47.322;9.432;2023-02-28T04:21:41;11.85;;;6.63;;
77362;SDS011;66428;47.322;9.432;2023-02-28T04:24:16;12.80;;;6.93;;
77362;SDS011;66428;47.322;9.432;2023-02-28T04:26:45;12.48;;;6.85;;
77362;SDS011;66428;47.322;9.432;2023-02-28T04:29:19;11.73;;;7.38;;
77362;SDS011;66428;47.322;9.432;2023-02-28T04:31:48;15.95;;;6.55;;
77362;SDS011;66428;47.322;9.432;2023-02-28T04:34:20;15.40;;;7.47;;
77362;SDS011;66428;47.322;9.432;2023-02-28T04:36:47;11.32;;;6.25;;
77362;SDS011;66428;47.322;9.432;2023-02-28T04:39:37;11.73;;;6.60;;
77362;SDS011;66428;47.322;9.432;2023-02-28T04:42:06;17.05;;;6.65;;
77362;SDS011;66428;47.322;9.432;2023-02-28T04:44:35;12.48;;;7.22;;
77362;SDS011;66428;47.322;9.432;2023-02-28T04:47:04;15.30;;;7.72;;
77362;SDS011;66428;47.322;9.432;2023-02-28T04:49:33;13.63;;;7.78;;
77362;SDS011;66428;47.322;9.432;2023-02-28T04:51:59;15.93;;;8.13;;
77362;SDS011;66428;47.322;9.432;2023-02-28T04:54:30;14.63;;;7.30;;
77362;SDS011;66428;47.322;9.432;2023-02-28T04:56:59;16.23;;;7.70;;
77362;SDS011;66428;47.322;9.432;2023-02-28T04:59:28;16.00;;;7.55;;
77362;SDS011;66428;47.322;9.432;2023-02-28T05:01:54;13.30;;;7.55;;
77362;SDS011;66428;47.322;9.432;2023-02-28T05:04:23;14.38;;;7.85;;
77362;SDS011;66428;47.322;9.432;2023-02-28T05:06:52;13.05;;;7.75;;
77362;SDS011;66428;47.322;9.432;2023-02-28T05:09:19;12.70;;;7.25;;
77362;SDS011;66428;47.322;9.432;2023-02-28T05:11:50;13.80;;;7.82;;
77362;SDS011;66428;47.322;9.432;2023-02-28T05:14:21;14.63;;;7.07;;
77362;SDS011;66428;47.322;9.432;2023-02-28T05:16:50;13.55;;;7.43;;
77362;SDS011;66428;47.322;9.432;2023-02-28T05:19:17;13.48;;;7.57;;
77362;SDS011;66428;47.322;9.432;2023-02-28T05:21:53;14.10;;;6.82;;
77362;SDS011;66428;47.322;9.432;2023-02-28T05:24:28;12.93;;;7.18;;
77362;SDS011;66428;47.322;9.432;2023-02-28T05:26:56;14.68;;;8.00;;
77362;SDS011;66428;47.322;9.432;2023-02-28T05:29:27;15.43;;;7.50;;
77362;SDS011;66428;47.322;9.432;2023-02-28T05:31:54;16.08;;;7.47;;
77362;SDS011;66428;47.322;9.432;2023-02-28T05:34:23;19.05;;;8.93;;
77362;SDS011;66428;47.322;9.432;2023-02-28T05:36:49;14.43;;;7.45;;
77362;SDS011;66428;47.322;9.432;2023-02-28T05:39:18;15.40;;;8.38;;
77362;SDS011;66428;47.322;9.432;2023-02-28T05:41:45;15.50;;;7.95;;
77362;SDS011;66428;47.322;9.432;2023-02-28T05:44:14;17.25;;;8.68;;
77362;SDS011;66428;47.322;9.432;2023-02-28T05:46:43;13.85;;;8.02;;
77362;SDS011;66428;47.322;9.432;2023-02-28T05:49:10;11.45;;;7.47;;
77362;SDS011;66428;47.322;9.432;2023-02-28T05:51:37;12.50;;;8.02;;
77362;SDS011;66428;47.322;9.432;2023-02-28T05:54:06;13.77;;;7.45;;
77362;SDS011;66428;47.322;9.432;2023-02-28T05:56:33;15.25;;;8.63;;
77362;SDS011;66428;47.322;9.432;2023-02-28T05:59:01;12.88;;;6.53;;
77362;SDS011;66428;47.322;9.432;2023-02-28T06:04:01;13.55;;;7.97;;
77362;SDS011;66428;47.322;9.432;2023-02-28T06:06:28;17.52;;;8.07;;
77362;SDS011;66428;47.322;9.432;2023-02-28T06:08:58;17.40;;;7.82;;
77362;SDS011;66428;47.322;9.432;2023-02-28T06:11:31;18.63;;;8.57;;
77362;SDS011;66428;47.322;9.432;2023-02-28T06:14:00;15.13;;;8.68;;
77362;SDS011;66428;47.322;9.432;2023-02-28T06:16:27;16.90;;;8.05;;
77362;SDS011;66428;47.322;9.432;2023-02-28T06:21:23;13.32;;;6.97;;
77362;SDS011;66428;47.322;9.432;2023-02-28T06:23:50;15.40;;;7.63;;
77362;SDS011;66428;47.322;9.432;2023-02-28T06:26:17;12.13;;;7.95;;
77362;SDS011;66428;47.322;9.432;2023-02-28T06:28:43;14.85;;;7.22;;
77362;SDS011;66428;47.322;9.432;2023-02-28T06:31:11;15.75;;;8.23;;
77362;SDS011;66428;47.322;9.432;2023-02-28T06:33:38;18.08;;;8.88;;
77362;SDS011;66428;47.322;9.432;2023-02-28T06:36:09;15.18;;;8.43;;
77362;SDS011;66428;47.322;9.432;2023-02-28T06:38:38;15.23;;;8.00;;
77362;SDS011;66428;47.322;9.432;2023-02-28T06:41:05;16.15;;;7.88;;
77362;SDS011;66428;47.322;9.432;2023-02-28T06:43:35;14.57;;;7.35;;
77362;SDS011;66428;47.322;9.432;2023-02-28T06:46:07;13.63;;;7.35;;
77362;SDS011;66428;47.322;9.432;2023-02-28T06:48:36;16.70;;;8.02;;
77362;SDS011;66428;47.322;9.432;2023-02-28T06:51:09;17.80;;;8.35;;
77362;SDS011;66428;47.322;9.432;2023-02-28T06:53:38;13.57;;;7.50;;
77362;SDS011;66428;47.322;9.432;2023-02-28T06:56:09;12.50;;;8.35;;
77362;SDS011;66428;47.322;9.432;2023-02-28T06:58:41;14.98;;;7.88;;
77362;SDS011;66428;47.322;9.432;2023-02-28T07:01:07;16.20;;;8.60;;
77362;SDS011;66428;47.322;9.432;2023-02-28T07:03:35;14.60;;;7.32;;
77362;SDS011;66428;47.322;9.432;2023-02-28T07:06:02;14.38;;;7.55;;
77362;SDS011;66428;47.322;9.432;2023-02-28T07:08:31;12.93;;;7.63;;
77362;SDS011;66428;47.322;9.432;2023-02-28T07:10:59;12.80;;;7.53;;
77362;SDS011;66428;47.322;9.432;2023-02-28T07:13:31;15.50;;;8.80;;
77362;SDS011;66428;47.322;9.432;2023-02-28T07:16:01;15.65;;;8.30;;
77362;SDS011;66428;47.322;9.432;2023-02-28T07:18:28;16.30;;;8.18;;
77362;SDS011;66428;47.322;9.432;2023-02-28T07:20:57;16.33;;;8.23;;
77362;SDS011;66428;47.322;9.432;2023-02-28T07:23:24;16.27;;;7.47;;
77362;SDS011;66428;47.322;9.432;2023-02-28T07:25:53;14.82;;;7.93;;
77362;SDS011;66428;47.322;9.432;2023-02-28T07:28:19;16.45;;;7.82;;
77362;SDS011;66428;47.322;9.432;2023-02-28T07:30:48;15.45;;;8.55;;
77362;SDS011;66428;47.322;9.432;2023-02-28T07:33:17;16.75;;;8.43;;
77362;SDS011;66428;47.322;9.432;2023-02-28T07:35:43;15.13;;;7.97;;
77362;SDS011;66428;47.322;9.432;2023-02-28T07:38:13;18.00;;;7.88;;
77362;SDS011;66428;47.322;9.432;2023-02-28T07:40:42;19.92;;;8.90;;
77362;SDS011;66428;47.322;9.432;2023-02-28T07:43:09;15.18;;;8.13;;
77362;SDS011;66428;47.322;9.432;2023-02-28T07:45:38;17.65;;;7.90;;
77362;SDS011;66428;47.322;9.432;2023-02-28T07:48:05;16.05;;;8.13;;
77362;SDS011;66428;47.322;9.432;2023-02-28T07:50:34;17.92;;;8.70;;
77362;SDS011;66428;47.322;9.432;2023-02-28T07:53:03;17.05;;;8.35;;
77362;SDS011;66428;47.322;9.432;2023-02-28T07:55:30;16.67;;;8.50;;
77362;SDS011;66428;47.322;9.432;2023-02-28T07:57:57;16.05;;;7.88;;
77362;SDS011;66428;47.322;9.432;2023-02-28T08:00:26;18.10;;;8.32;;
77362;SDS011;66428;47.322;9.432;2023-02-28T08:02:55;15.32;;;7.72;;
77362;SDS011;66428;47.322;9.432;2023-02-28T08:05:21;16.80;;;8.23;;
77362;SDS011;66428;47.322;9.432;2023-02-28T08:07:50;14.75;;;7.60;;
77362;SDS011;66428;47.322;9.432;2023-02-28T08:10:17;17.88;;;7.70;;
77362;SDS011;66428;47.322;9.432;2023-02-28T08:12:43;18.02;;;7.45;;
77362;SDS011;66428;47.322;9.432;2023-02-28T08:15:10;15.93;;;8.30;;
77362;SDS011;66428;47.322;9.432;2023-02-28T08:17:39;14.23;;;7.75;;
77362;SDS011;66428;47.322;9.432;2023-02-28T08:20:08;17.70;;;8.02;;
77362;SDS011;66428;47.322;9.432;2023-02-28T08:22:37;15.00;;;7.43;;
77362;SDS011;66428;47.322;9.432;2023-02-28T08:25:08;16.55;;;7.70;;
77362;SDS011;66428;47.322;9.432;2023-02-28T08:27:37;17.85;;;8.05;;
77362;SDS011;66428;47.322;9.432;2023-02-28T08:30:04;15.90;;;7.82;;
77362;SDS011;66428;47.322;9.432;2023-02-28T08:32:33;16.92;;;8.45;;
77362;SDS011;66428;47.322;9.432;2023-02-28T08:35:00;15.68;;;8.30;;
77362;SDS011;66428;47.322;9.432;2023-02-28T08:37:29;20.83;;;8.95;;
77362;SDS011;66428;47.322;9.432;2023-02-28T08:40:00;16.88;;;7.53;;
77362;SDS011;66428;47.322;9.432;2023-02-28T08:42:26;15.82;;;7.57;;
77362;SDS011;66428;47.322;9.432;2023-02-28T08:44:55;17.15;;;8.52;;
77362;SDS011;66428;47.322;9.432;2023-02-28T08:47:22;15.80;;;8.73;;
77362;SDS011;66428;47.322;9.432;2023-02-28T08:49:51;17.38;;;8.20;;
77362;SDS011;66428;47.322;9.432;2023-02-28T08:52:18;16.10;;;7.63;;
77362;SDS011;66428;47.322;9.432;2023-02-28T08:54:44;17.10;;;8.30;;
77362;SDS011;66428;47.322;9.432;2023-02-28T08:57:13;15.82;;;8.48;;
77362;SDS011;66428;47.322;9.432;2023-02-28T08:59:42;17.05;;;8.77;;
77362;SDS011;66428;47.322;9.432;2023-02-28T09:02:10;20.17;;;9.02;;
77362;SDS011;66428;47.322;9.432;2023-02-28T09:04:40;12.75;;;8.10;;
77362;SDS011;66428;47.322;9.432;2023-02-28T09:07:13;17.15;;;8.57;;
77362;SDS011;66428;47.322;9.432;2023-02-28T09:09:42;17.70;;;9.50;;
77362;SDS011;66428;47.322;9.432;2023-02-28T09:12:23;19.73;;;9.40;;
77362;SDS011;66428;47.322;9.432;2023-02-28T09:14:50;14.82;;;7.30;;
77362;SDS011;66428;47.322;9.432;2023-02-28T09:17:16;18.30;;;9.23;;
77362;SDS011;66428;47.322;9.432;2023-02-28T09:19:43;17.73;;;9.00;;
77362;SDS011;66428;47.322;9.432;2023-02-28T09:22:12;15.43;;;8.80;;
77362;SDS011;66428;47.322;9.432;2023-02-28T09:24:41;14.95;;;8.43;;
77362;SDS011;66428;47.322;9.432;2023-02-28T09:27:07;14.43;;;8.85;;
77362;SDS011;66428;47.322;9.432;2023-02-28T09:29:36;12.45;;;8.18;;
77362;SDS011;66428;47.322;9.432;2023-02-28T09:32:08;15.38;;;8.57;;
77362;SDS011;66428;47.322;9.432;2023-02-28T09:34:34;16.25;;;7.97;;
77362;SDS011;66428;47.322;9.432;2023-02-28T09:37:06;17.50;;;8.90;;
77362;SDS011;66428;47.322;9.432;2023-02-28T09:39:35;14.23;;;8.00;;
77362;SDS011;66428;47.322;9.432;2023-02-28T09:42:04;18.67;;;9.55;;
77362;SDS011;66428;47.322;9.432;2023-02-28T09:49:37;18.17;;;9.02;;
77362;SDS011;66428;47.322;9.432;2023-02-28T09:52:11;15.77;;;8.40;;
77362;SDS011;66428;47.322;9.432;2023-02-28T09:54:38;15.13;;;8.25;;
77362;SDS011;66428;47.322;9.432;2023-02-28T09:57:08;14.50;;;9.02;;
77362;SDS011;66428;47.322;9.432;2023-02-28T10:02:10;14.75;;;8.25;;
77362;SDS011;66428;47.322;9.432;2023-02-28T10:04:44;15.73;;;8.43;;
77362;SDS011;66428;47.322;9.432;2023-02-28T10:09:53;16.40;;;8.55;;
77362;SDS011;66428;47.322;9.432;2023-02-28T10:12:21;13.98;;;8.57;;
77362;SDS011;66428;47.322;9.432;2023-02-28T10:14:51;16.65;;;8.27;;
77362;SDS011;66428;47.322;9.432;2023-02-28T10:17:26;12.73;;;7.88;;
77362;SDS011;66428;47.322;9.432;2023-02-28T10:19:59;12.48;;;8.18;;
77362;SDS011;66428;47.322;9.432;2023-02-28T10:24:55;18.58;;;8.32;;
77362;SDS011;66428;47.322;9.432;2023-02-28T10:27:28;14.15;;;7.57;;
77362;SDS011;66428;47.322;9.432;2023-02-28T10:30:01;12.65;;;8.07;;
77362;SDS011;66428;47.322;9.432;2023-02-28T10:32:32;16.05;;;8.93;;
77362;SDS011;66428;47.322;9.432;2023-02-28T10:35:15;14.82;;;7.65;;
77362;SDS011;66428;47.322;9.432;2023-02-28T10:37:43;15.00;;;7.90;;
77362;SDS011;66428;47.322;9.432;2023-02-28T10:43:17;14.70;;;9.00;;
77362;SDS011;66428;47.322;9.432;2023-02-28T10:46:15;15.65;;;8.05;;
77362;SDS011;66428;47.322;9.432;2023-02-28T10:51:00;14.75;;;8.20;;
77362;SDS011;66428;47.322;9.432;2023-02-28T11:01:15;15.13;;;8.43;;
77362;SDS011;66428;47.322;9.432;2023-02-28T11:03:44;14.02;;;6.90;;
77362;SDS011;66428;47.322;9.432;2023-02-28T11:06:20;14.50;;;7.38;;
77362;SDS011;66428;47.322;9.432;2023-02-28T11:08:54;15.13;;;8.65;;
77362;SDS011;66428;47.322;9.432;2023-02-28T11:11:22;12.95;;;8.48;;
77362;SDS011;66428;47.322;9.432;2023-02-28T11:13:53;14.18;;;7.65;;
77362;SDS011;66428;47.322;9.432;2023-02-28T11:16:22;14.52;;;8.38;;
77362;SDS011;66428;47.322;9.432;2023-02-28T11:18:57;15.43;;;8.77;;
77362;SDS011;66428;47.322;9.432;2023-02-28T11:21:27;17.90;;;9.15;;
77362;SDS011;66428;47.322;9.432;2023-02-28T11:24:02;13.88;;;8.43;;
77362;SDS011;66428;47.322;9.432;2023-02-28T11:26:37;15.75;;;9.15;;
77362;SDS011;66428;47.322;9.432;2023-02-28T11:29:18;17.05;;;8.52;;
77362;SDS011;66428;47.322;9.432;2023-02-28T11:32:11;18.27;;;8.85;;
77362;SDS011;66428;47.322;9.432;2023-02-28T11:34:32;18.90;;;9.05;;
77362;SDS011;66428;47.322;9.432;2023-02-28T11:36:59;18.35;;;9.35;;
77362;SDS011;66428;47.322;9.432;2023-02-28T11:39:27;15.77;;;9.57;;
77362;SDS011;66428;47.322;9.432;2023-02-28T11:42:11;18.27;;;8.80;;
77362;SDS011;66428;47.322;9.432;2023-02-28T11:50:16;13.32;;;8.60;;
77362;SDS011;66428;47.322;9.432;2023-02-28T11:52:55;14.63;;;8.38;;
77362;SDS011;66428;47.322;9.432;2023-02-28T12:03:27;13.48;;;8.63;;
77362;SDS011;66428;47.322;9.432;2023-02-28T12:06:06;17.63;;;8.90;;
77362;SDS011;66428;47.322;9.432;2023-02-28T12:08:47;19.50;;;9.77;;
77362;SDS011;66428;47.322;9.432;2023-02-28T12:11:19;15.93;;;9.80;;
77362;SDS011;66428;47.322;9.432;2023-02-28T12:21:44;19.50;;;8.95;;
77362;SDS011;66428;47.322;9.432;2023-02-28T12:24:27;21.02;;;9.77;;
77362;SDS011;66428;47.322;9.432;2023-02-28T12:27:00;15.23;;;8.25;;
77362;SDS011;66428;47.322;9.432;2023-02-28T12:32:16;21.52;;;9.00;;
77362;SDS011;66428;47.322;9.432;2023-02-28T12:34:49;15.38;;;8.40;;
77362;SDS011;66428;47.322;9.432;2023-02-28T12:37:19;20.65;;;9.45;;
77362;SDS011;66428;47.322;9.432;2023-02-28T12:39:54;17.80;;;9.25;;
77362;SDS011;66428;47.322;9.432;2023-02-28T12:42:30;16.15;;;8.45;;
77362;SDS011;66428;47.322;9.432;2023-02-28T12:47:41;16.13;;;8.40;;
77362;SDS011;66428;47.322;9.432;2023-02-28T12:50:11;15.70;;;8.40;;
77362;SDS011;66428;47.322;9.432;2023-02-28T13:00:23;17.25;;;9.55;;
77362;SDS011;66428;47.322;9.432;2023-02-28T13:10:48;18.95;;;8.70;;
77362;SDS011;66428;47.322;9.432;2023-02-28T13:13:29;16.30;;;9.48;;
77362;SDS011;66428;47.322;9.432;2023-02-28T13:16:00;15.45;;;9.25;;
77362;SDS011;66428;47.322;9.432;2023-02-28T13:18:39;17.05;;;10.43;;
77362;SDS011;66428;47.322;9.432;2023-02-28T13:21:27;14.68;;;7.95;;
77362;SDS011;66428;47.322;9.432;2023-02-28T13:24:01;13.95;;;7.75;;
77362;SDS011;66428;47.322;9.432;2023-02-28T13:32:25;17.13;;;9.40;;
77362;SDS011;66428;47.322;9.432;2023-02-28T13:34:26;15.55;;;7.82;;
77362;SDS011;66428;47.322;9.432;2023-02-28T13:47:44;14.52;;;9.25;;
77362;SDS011;66428;47.322;9.432;2023-02-28T13:52:53;17.23;;;9.77;;
77362;SDS011;66428;47.322;9.432;2023-02-28T13:55:28;17.10;;;8.77;;
77362;SDS011;66428;47.322;9.432;2023-02-28T14:03:00;14.65;;;9.30;;
77362;SDS011;66428;47.322;9.432;2023-02-28T14:05:30;17.73;;;9.32;;
77362;SDS011;66428;47.322;9.432;2023-02-28T14:08:43;19.60;;;9.70;;
77362;SDS011;66428;47.322;9.432;2023-02-28T14:10:51;18.05;;;8.38;;
77362;SDS011;66428;47.322;9.432;2023-02-28T14:13:44;17.55;;;9.25;;
77362;SDS011;66428;47.322;9.432;2023-02-28T14:16:12;17.63;;;9.65;;
77362;SDS011;66428;47.322;9.432;2023-02-28T14:18:42;18.67;;;9.48;;
77362;SDS011;66428;47.322;9.432;2023-02-28T14:21:20;18.15;;;8.80;;
77362;SDS011;66428;47.322;9.432;2023-02-28T14:27:14;16.75;;;9.73;;
77362;SDS011;66428;47.322;9.432;2023-02-28T14:32:33;20.45;;;10.07;;
77362;SDS011;66428;47.322;9.432;2023-02-28T14:37:33;16.95;;;9.07;;
77362;SDS011;66428;47.322;9.432;2023-02-28T14:40:02;16.23;;;9.40;;
77362;SDS011;66428;47.322;9.432;2023-02-28T14:42:33;18.92;;;9.27;;
77362;SDS011;66428;47.322;9.432;2023-02-28T14:44:59;16.52;;;9.50;;
77362;SDS011;66428;47.322;9.432;2023-02-28T14:47:30;18.20;;;9.80;;
77362;SDS011;66428;47.322;9.432;2023-02-28T14:49:58;17.88;;;8.85;;
77362;SDS011;66428;47.322;9.432;2023-02-28T14:52:28;19.83;;;9.80;;
77362;SDS011;66428;47.322;9.432;2023-02-28T14:54:59;15.30;;;9.05;;
77362;SDS011;66428;47.322;9.432;2023-02-28T14:57:30;18.30;;;10.38;;
77362;SDS011;66428;47.322;9.432;2023-02-28T15:00:16;17.08;;;8.88;;
77362;SDS011;66428;47.322;9.432;2023-02-28T15:02:49;17.05;;;9.00;;
77362;SDS011;66428;47.322;9.432;2023-02-28T15:05:22;17.75;;;9.60;;
77362;SDS011;66428;47.322;9.432;2023-02-28T15:08:05;15.02;;;9.18;;
77362;SDS011;66428;47.322;9.432;2023-02-28T15:10:32;18.83;;;10.10;;
77362;SDS011;66428;47.322;9.432;2023-02-28T15:13:07;15.75;;;8.48;;
77362;SDS011;66428;47.322;9.432;2023-02-28T15:18:06;15.68;;;8.65;;
77362;SDS011;66428;47.322;9.432;2023-02-28T15:20:39;15.75;;;8.68;;
77362;SDS011;66428;47.322;9.432;2023-02-28T15:23:09;18.05;;;8.57;;
77362;SDS011;66428;47.322;9.432;2023-02-28T15:25:39;19.30;;;9.43;;
77362;SDS011;66428;47.322;9.432;2023-02-28T15:28:11;18.55;;;10.30;;
77362;SDS011;66428;47.322;9.432;2023-02-28T15:30:50;16.20;;;8.38;;
77362;SDS011;66428;47.322;9.432;2023-02-28T15:33:20;42.53;;;21.25;;
77362;SDS011;66428;47.322;9.432;2023-02-28T15:35:51;20.45;;;10.75;;
77362;SDS011;66428;47.322;9.432;2023-02-28T15:40:45;17.95;;;9.30;;
77362;SDS011;66428;47.322;9.432;2023-02-28T15:45:52;19.45;;;9.35;;
77362;SDS011;66428;47.322;9.432;2023-02-28T15:48:29;20.63;;;10.20;;
77362;SDS011;66428;47.322;9.432;2023-02-28T15:53:40;18.02;;;8.48;;
77362;SDS011;66428;47.322;9.432;2023-02-28T15:56:16;12.98;;;8.85;;
77362;SDS011;66428;47.322;9.432;2023-02-28T15:58:47;18.90;;;9.50;;
77362;SDS011;66428;47.322;9.432;2023-02-28T16:01:23;16.08;;;9.25;;
77362;SDS011;66428;47.322;9.432;2023-02-28T16:03:53;16.63;;;8.43;;
77362;SDS011;66428;47.322;9.432;2023-02-28T16:06:23;20.45;;;10.38;;
77362;SDS011;66428;47.322;9.432;2023-02-28T16:08:51;15.05;;;8.95;;
77362;SDS011;66428;47.322;9.432;2023-02-28T16:11:20;20.80;;;10.43;;
77362;SDS011;66428;47.322;9.432;2023-02-28T16:13:47;23.20;;;10.90;;
77362;SDS011;66428;47.322;9.432;2023-02-28T16:16:18;20.70;;;9.70;;
77362;SDS011;66428;47.322;9.432;2023-02-28T16:18:45;17.83;;;8.73;;
77362;SDS011;66428;47.322;9.432;2023-02-28T16:21:14;19.17;;;8.88;;
77362;SDS011;66428;47.322;9.432;2023-02-28T16:23:41;15.98;;;9.13;;
77362;SDS011;66428;47.322;9.432;2023-02-28T16:26:10;13.98;;;8.07;;
77362;SDS011;66428;47.322;9.432;2023-02-28T16:28:43;18.67;;;9.13;;
77362;SDS011;66428;47.322;9.432;2023-02-28T16:31:11;19.45;;;9.38;;
77362;SDS011;66428;47.322;9.432;2023-02-28T16:33:45;16.33;;;8.57;;
77362;SDS011;66428;47.322;9.432;2023-02-28T16:36:16;18.42;;;10.32;;
77362;SDS011;66428;47.322;9.432;2023-02-28T16:38:43;18.88;;;9.98;;
77362;SDS011;66428;47.322;9.432;2023-02-28T16:41:18;15.40;;;9.35;;
77362;SDS011;66428;47.322;9.432;2023-02-28T16:43:49;17.38;;;9.25;;
77362;SDS011;66428;47.322;9.432;2023-02-28T16:46:16;13.80;;;8.32;;
77362;SDS011;66428;47.322;9.432;2023-02-28T16:48:45;17.33;;;9.30;;
77362;SDS011;66428;47.322;9.432;2023-02-28T16:51:13;23.13;;;11.02;;
77362;SDS011;66428;47.322;9.432;2023-02-28T16:53:40;20.50;;;9.82;;
77362;SDS011;66428;47.322;9.432;2023-02-28T16:58:33;17.30;;;8.63;;
77362;SDS011;66428;47.322;9.432;2023-02-28T17:01:02;22.25;;;10.15;;
77362;SDS011;66428;47.322;9.432;2023-02-28T17:03:31;21.80;;;10.95;;
77362;SDS011;66428;47.322;9.432;2023-02-28T17:06:02;20.52;;;9.90;;
77362;SDS011;66428;47.322;9.432;2023-02-28T17:08:31;18.77;;;9.88;;
77362;SDS011;66428;47.322;9.432;2023-02-28T17:10:59;19.60;;;10.52;;
77362;SDS011;66428;47.322;9.432;2023-02-28T17:13:25;19.38;;;10.35;;
77362;SDS011;66428;47.322;9.432;2023-02-28T17:15:52;18.50;;;10.35;;
77362;SDS011;66428;47.322;9.432;2023-02-28T17:18:19;18.40;;;9.75;;
77362;SDS011;66428;47.322;9.432;2023-02-28T17:20:49;23.48;;;11.40;;
77362;SDS011;66428;47.322;9.432;2023-02-28T17:23:15;21.83;;;11.02;;
77362;SDS011;66428;47.322;9.432;2023-02-28T17:25:44;26.58;;;11.13;;
77362;SDS011;66428;47.322;9.432;2023-02-28T17:28:25;21.65;;;10.50;;
77362;SDS011;66428;47.322;9.432;2023-02-28T17:30:51;22.83;;;11.18;;